Terminal Aerodrome Forecast
Issued by NWS Medford, OR

Home | Current Version | Previous Version | Text Only | Print | Product List | Glossary On
Versions: 1 2 3 4 5 6 7 8 9 10 11 12 13 14 15 16 17 18 19 20 21
954
FTUS46 KMFR 260524
TAFMFR
TAF
KMFR 260524Z 2606/2706 03004KT P6SM SCT035 OVC050
     FM261700 06005KT P6SM -RA FEW030 OVC050 WS020/22030KT
     FM262200 31009G15KT P6SM -SHRA BKN030 OVC050
     FM270300 22004KT P6SM -SHRA BKN020 OVC040=

USA.gov is the U.S. government's official web portal to all federal, state and local government web resources and services.